Skull Valley, Arizona
Current Conditions -  °F | °C
As of 2:53 AM on Thursday 29 Jan 2015 (Local Time) from KPRC Reporting Station
Clear Clear  
Wind Chill: 38°   Ceiling: Unl
Heat Index: 42°   Visibility: 10mi
Dew Point: 32°   Wind: 6mph
Humidity: 67%   Direction: 200°SSW
Pressure: 30.21"   Gusts: NA
Location:  34.51°N, 112.69°W
Report Text: KPRC 290953Z AUTO 20005KT 10SM CLR 06/00 A3021 RMK AO2 SLP189 T00560000
Loading
Personal Weather Stations






























Interactive Weather Map New forecast layout! Learn more

10-Day Weather Forecast

Advertisements
Track Severe Weather on mobile